sensor_id;sensor_type;location;lat;lon;timestamp;P1;durP1;ratioP1;P2;durP2;ratioP2
54641;SDS011;40536;53.194;5.728;2024-01-10T00:01:42;24.52;;;22.13;;
54641;SDS011;40536;53.194;5.728;2024-01-10T00:04:07;21.73;;;19.60;;
54641;SDS011;40536;53.194;5.728;2024-01-10T00:06:33;23.25;;;20.98;;
54641;SDS011;40536;53.194;5.728;2024-01-10T00:08:59;21.23;;;19.02;;
54641;SDS011;40536;53.194;5.728;2024-01-10T00:11:24;25.65;;;23.33;;
54641;SDS011;40536;53.194;5.728;2024-01-10T00:13:50;24.83;;;22.60;;
54641;SDS011;40536;53.194;5.728;2024-01-10T00:16:16;23.05;;;20.73;;
54641;SDS011;40536;53.194;5.728;2024-01-10T00:18:41;22.85;;;20.35;;
54641;SDS011;40536;53.194;5.728;2024-01-10T00:21:07;29.77;;;27.45;;
54641;SDS011;40536;53.194;5.728;2024-01-10T00:23:34;22.60;;;20.05;;
54641;SDS011;40536;53.194;5.728;2024-01-10T00:26:00;21.42;;;19.55;;
54641;SDS011;40536;53.194;5.728;2024-01-10T00:28:26;23.55;;;21.25;;
54641;SDS011;40536;53.194;5.728;2024-01-10T00:30:51;22.80;;;20.75;;
54641;SDS011;40536;53.194;5.728;2024-01-10T00:33:21;23.25;;;20.80;;
54641;SDS011;40536;53.194;5.728;2024-01-10T00:35:46;24.60;;;22.33;;
54641;SDS011;40536;53.194;5.728;2024-01-10T00:38:12;23.05;;;20.77;;
54641;SDS011;40536;53.194;5.728;2024-01-10T00:40:38;24.08;;;21.67;;
54641;SDS011;40536;53.194;5.728;2024-01-10T00:43:04;22.90;;;20.55;;
54641;SDS011;40536;53.194;5.728;2024-01-10T00:45:29;23.48;;;21.27;;
54641;SDS011;40536;53.194;5.728;2024-01-10T00:47:55;23.48;;;20.83;;
54641;SDS011;40536;53.194;5.728;2024-01-10T00:50:20;20.42;;;18.45;;
54641;SDS011;40536;53.194;5.728;2024-01-10T00:52:47;20.73;;;18.17;;
54641;SDS011;40536;53.194;5.728;2024-01-10T00:55:12;19.70;;;16.75;;
54641;SDS011;40536;53.194;5.728;2024-01-10T00:57:38;21.80;;;17.02;;
54641;SDS011;40536;53.194;5.728;2024-01-10T01:00:07;19.10;;;17.10;;
54641;SDS011;40536;53.194;5.728;2024-01-10T01:02:34;20.77;;;16.83;;
54641;SDS011;40536;53.194;5.728;2024-01-10T01:05:00;19.27;;;16.73;;
54641;SDS011;40536;53.194;5.728;2024-01-10T01:07:27;24.40;;;19.10;;
54641;SDS011;40536;53.194;5.728;2024-01-10T01:09:52;20.83;;;18.35;;
54641;SDS011;40536;53.194;5.728;2024-01-10T01:12:18;20.60;;;16.67;;
54641;SDS011;40536;53.194;5.728;2024-01-10T01:14:44;22.40;;;19.98;;
54641;SDS011;40536;53.194;5.728;2024-01-10T01:17:09;21.00;;;18.38;;
54641;SDS011;40536;53.194;5.728;2024-01-10T01:19:35;23.63;;;20.48;;
54641;SDS011;40536;53.194;5.728;2024-01-10T01:22:01;22.27;;;19.88;;
54641;SDS011;40536;53.194;5.728;2024-01-10T01:24:27;22.35;;;19.52;;
54641;SDS011;40536;53.194;5.728;2024-01-10T01:26:52;23.25;;;18.85;;
54641;SDS011;40536;53.194;5.728;2024-01-10T01:29:18;22.00;;;19.75;;
54641;SDS011;40536;53.194;5.728;2024-01-10T01:31:45;23.77;;;19.80;;
54641;SDS011;40536;53.194;5.728;2024-01-10T01:34:10;27.08;;;20.60;;
54641;SDS011;40536;53.194;5.728;2024-01-10T01:36:36;23.83;;;19.25;;
54641;SDS011;40536;53.194;5.728;2024-01-10T01:39:02;21.15;;;17.92;;
54641;SDS011;40536;53.194;5.728;2024-01-10T01:41:28;21.70;;;17.40;;
54641;SDS011;40536;53.194;5.728;2024-01-10T01:43:54;24.73;;;18.77;;
54641;SDS011;40536;53.194;5.728;2024-01-10T01:46:19;22.65;;;19.40;;
54641;SDS011;40536;53.194;5.728;2024-01-10T01:48:45;27.45;;;23.75;;
54641;SDS011;40536;53.194;5.728;2024-01-10T01:51:12;23.90;;;21.38;;
54641;SDS011;40536;53.194;5.728;2024-01-10T01:53:39;26.85;;;21.67;;
54641;SDS011;40536;53.194;5.728;2024-01-10T01:56:06;28.10;;;25.30;;
54641;SDS011;40536;53.194;5.728;2024-01-10T01:58:33;25.65;;;23.08;;
54641;SDS011;40536;53.194;5.728;2024-01-10T02:01:01;28.88;;;24.98;;
54641;SDS011;40536;53.194;5.728;2024-01-10T02:03:28;25.98;;;23.23;;
54641;SDS011;40536;53.194;5.728;2024-01-10T02:05:57;27.52;;;24.40;;
54641;SDS011;40536;53.194;5.728;2024-01-10T02:08:23;31.58;;;26.75;;
54641;SDS011;40536;53.194;5.728;2024-01-10T02:10:48;29.70;;;26.70;;
54641;SDS011;40536;53.194;5.728;2024-01-10T02:13:15;28.30;;;25.38;;
54641;SDS011;40536;53.194;5.728;2024-01-10T02:15:41;31.10;;;27.30;;
54641;SDS011;40536;53.194;5.728;2024-01-10T02:18:08;29.52;;;26.40;;
54641;SDS011;40536;53.194;5.728;2024-01-10T02:20:37;28.15;;;25.25;;
54641;SDS011;40536;53.194;5.728;2024-01-10T02:23:03;32.03;;;28.83;;
54641;SDS011;40536;53.194;5.728;2024-01-10T02:25:28;32.17;;;26.50;;
54641;SDS011;40536;53.194;5.728;2024-01-10T02:27:54;27.85;;;24.85;;
54641;SDS011;40536;53.194;5.728;2024-01-10T02:30:21;29.63;;;26.52;;
54641;SDS011;40536;53.194;5.728;2024-01-10T02:32:47;33.03;;;29.42;;
54641;SDS011;40536;53.194;5.728;2024-01-10T02:35:16;35.35;;;31.75;;
54641;SDS011;40536;53.194;5.728;2024-01-10T02:37:42;32.47;;;28.05;;
54641;SDS011;40536;53.194;5.728;2024-01-10T02:40:08;28.63;;;25.35;;
54641;SDS011;40536;53.194;5.728;2024-01-10T02:42:34;37.22;;;33.63;;
54641;SDS011;40536;53.194;5.728;2024-01-10T02:45:00;26.45;;;23.23;;
54641;SDS011;40536;53.194;5.728;2024-01-10T02:47:26;31.10;;;25.27;;
54641;SDS011;40536;53.194;5.728;2024-01-10T02:49:53;29.52;;;26.20;;
54641;SDS011;40536;53.194;5.728;2024-01-10T02:52:18;29.65;;;24.23;;
54641;SDS011;40536;53.194;5.728;2024-01-10T02:54:45;30.45;;;27.02;;
54641;SDS011;40536;53.194;5.728;2024-01-10T02:57:11;32.72;;;29.33;;
54641;SDS011;40536;53.194;5.728;2024-01-10T02:59:37;32.45;;;28.92;;
54641;SDS011;40536;53.194;5.728;2024-01-10T03:02:03;36.50;;;32.88;;
54641;SDS011;40536;53.194;5.728;2024-01-10T03:04:29;37.13;;;33.38;;
54641;SDS011;40536;53.194;5.728;2024-01-10T03:06:54;31.98;;;28.73;;
54641;SDS011;40536;53.194;5.728;2024-01-10T03:09:20;38.47;;;34.25;;
54641;SDS011;40536;53.194;5.728;2024-01-10T03:11:47;36.03;;;32.55;;
54641;SDS011;40536;53.194;5.728;2024-01-10T03:14:12;35.30;;;31.50;;
54641;SDS011;40536;53.194;5.728;2024-01-10T03:16:38;38.47;;;34.75;;
54641;SDS011;40536;53.194;5.728;2024-01-10T03:19:04;36.58;;;32.67;;
54641;SDS011;40536;53.194;5.728;2024-01-10T03:21:29;36.47;;;32.60;;
54641;SDS011;40536;53.194;5.728;2024-01-10T03:23:55;35.92;;;32.55;;
54641;SDS011;40536;53.194;5.728;2024-01-10T03:26:22;33.75;;;30.35;;
54641;SDS011;40536;53.194;5.728;2024-01-10T03:28:48;44.13;;;40.30;;
54641;SDS011;40536;53.194;5.728;2024-01-10T03:31:14;34.35;;;30.92;;
54641;SDS011;40536;53.194;5.728;2024-01-10T03:33:40;37.97;;;34.00;;
54641;SDS011;40536;53.194;5.728;2024-01-10T03:36:11;33.67;;;30.35;;
54641;SDS011;40536;53.194;5.728;2024-01-10T03:38:38;36.80;;;31.92;;
54641;SDS011;40536;53.194;5.728;2024-01-10T03:41:04;42.08;;;38.03;;
54641;SDS011;40536;53.194;5.728;2024-01-10T03:43:29;36.28;;;32.47;;
54641;SDS011;40536;53.194;5.728;2024-01-10T03:45:56;36.60;;;32.75;;
54641;SDS011;40536;53.194;5.728;2024-01-10T03:48:22;34.67;;;31.25;;
54641;SDS011;40536;53.194;5.728;2024-01-10T03:50:48;37.53;;;33.50;;
54641;SDS011;40536;53.194;5.728;2024-01-10T03:53:13;37.97;;;33.80;;
54641;SDS011;40536;53.194;5.728;2024-01-10T03:55:39;36.78;;;32.90;;
54641;SDS011;40536;53.194;5.728;2024-01-10T03:58:05;36.92;;;33.13;;
54641;SDS011;40536;53.194;5.728;2024-01-10T04:00:30;32.92;;;28.63;;
54641;SDS011;40536;53.194;5.728;2024-01-10T04:02:56;34.22;;;28.52;;
54641;SDS011;40536;53.194;5.728;2024-01-10T04:05:22;34.92;;;31.05;;
54641;SDS011;40536;53.194;5.728;2024-01-10T04:07:49;36.38;;;32.33;;
54641;SDS011;40536;53.194;5.728;2024-01-10T04:10:15;31.67;;;28.35;;
54641;SDS011;40536;53.194;5.728;2024-01-10T04:12:41;32.92;;;29.45;;
54641;SDS011;40536;53.194;5.728;2024-01-10T04:15:07;30.83;;;27.63;;
54641;SDS011;40536;53.194;5.728;2024-01-10T04:17:33;31.48;;;28.27;;
54641;SDS011;40536;53.194;5.728;2024-01-10T04:19:59;31.98;;;28.50;;
54641;SDS011;40536;53.194;5.728;2024-01-10T04:22:25;31.10;;;27.33;;
54641;SDS011;40536;53.194;5.728;2024-01-10T04:24:51;31.58;;;27.92;;
54641;SDS011;40536;53.194;5.728;2024-01-10T04:27:17;33.47;;;30.08;;
54641;SDS011;40536;53.194;5.728;2024-01-10T04:29:45;32.75;;;29.23;;
54641;SDS011;40536;53.194;5.728;2024-01-10T04:32:11;38.25;;;34.45;;
54641;SDS011;40536;53.194;5.728;2024-01-10T04:34:36;34.72;;;31.23;;
54641;SDS011;40536;53.194;5.728;2024-01-10T04:37:02;35.55;;;31.95;;
54641;SDS011;40536;53.194;5.728;2024-01-10T04:39:28;32.65;;;28.95;;
54641;SDS011;40536;53.194;5.728;2024-01-10T04:41:54;34.30;;;31.00;;
54641;SDS011;40536;53.194;5.728;2024-01-10T04:44:20;35.42;;;31.92;;
54641;SDS011;40536;53.194;5.728;2024-01-10T04:46:45;33.75;;;30.33;;
54641;SDS011;40536;53.194;5.728;2024-01-10T04:49:11;32.03;;;28.90;;
54641;SDS011;40536;53.194;5.728;2024-01-10T04:51:37;32.63;;;29.35;;
54641;SDS011;40536;53.194;5.728;2024-01-10T04:54:02;30.80;;;27.45;;
54641;SDS011;40536;53.194;5.728;2024-01-10T04:56:28;32.10;;;28.88;;
54641;SDS011;40536;53.194;5.728;2024-01-10T04:58:54;31.58;;;28.55;;
54641;SDS011;40536;53.194;5.728;2024-01-10T05:01:20;30.20;;;27.08;;
54641;SDS011;40536;53.194;5.728;2024-01-10T05:03:46;32.83;;;29.65;;
54641;SDS011;40536;53.194;5.728;2024-01-10T05:06:11;31.92;;;28.52;;
54641;SDS011;40536;53.194;5.728;2024-01-10T05:08:37;33.10;;;29.80;;
54641;SDS011;40536;53.194;5.728;2024-01-10T05:11:03;29.38;;;24.65;;
54641;SDS011;40536;53.194;5.728;2024-01-10T05:13:28;31.20;;;28.17;;
54641;SDS011;40536;53.194;5.728;2024-01-10T05:15:54;30.67;;;27.42;;
54641;SDS011;40536;53.194;5.728;2024-01-10T05:18:20;32.72;;;29.75;;
54641;SDS011;40536;53.194;5.728;2024-01-10T05:20:46;30.55;;;26.00;;
54641;SDS011;40536;53.194;5.728;2024-01-10T05:23:12;32.63;;;27.48;;
54641;SDS011;40536;53.194;5.728;2024-01-10T05:25:37;28.92;;;25.92;;
54641;SDS011;40536;53.194;5.728;2024-01-10T05:28:03;29.45;;;25.08;;
54641;SDS011;40536;53.194;5.728;2024-01-10T05:30:29;28.52;;;24.75;;
54641;SDS011;40536;53.194;5.728;2024-01-10T05:32:55;34.20;;;30.77;;
54641;SDS011;40536;53.194;5.728;2024-01-10T05:35:21;29.67;;;26.55;;
54641;SDS011;40536;53.194;5.728;2024-01-10T05:37:47;31.38;;;28.20;;
54641;SDS011;40536;53.194;5.728;2024-01-10T05:40:12;29.48;;;26.55;;
54641;SDS011;40536;53.194;5.728;2024-01-10T05:42:38;31.92;;;28.75;;
54641;SDS011;40536;53.194;5.728;2024-01-10T05:45:04;30.67;;;27.55;;
54641;SDS011;40536;53.194;5.728;2024-01-10T05:47:31;30.63;;;27.52;;
54641;SDS011;40536;53.194;5.728;2024-01-10T05:49:56;32.38;;;28.92;;
54641;SDS011;40536;53.194;5.728;2024-01-10T05:52:22;31.30;;;27.95;;
54641;SDS011;40536;53.194;5.728;2024-01-10T05:54:48;29.48;;;26.17;;
54641;SDS011;40536;53.194;5.728;2024-01-10T05:57:14;36.72;;;30.92;;
54641;SDS011;40536;53.194;5.728;2024-01-10T05:59:40;31.70;;;28.55;;
54641;SDS011;40536;53.194;5.728;2024-01-10T06:02:06;33.90;;;29.30;;
54641;SDS011;40536;53.194;5.728;2024-01-10T06:04:32;32.67;;;29.30;;
54641;SDS011;40536;53.194;5.728;2024-01-10T06:06:58;33.00;;;29.40;;
54641;SDS011;40536;53.194;5.728;2024-01-10T06:09:24;37.30;;;32.78;;
54641;SDS011;40536;53.194;5.728;2024-01-10T06:11:51;35.95;;;32.42;;
54641;SDS011;40536;53.194;5.728;2024-01-10T06:14:17;33.58;;;30.23;;
54641;SDS011;40536;53.194;5.728;2024-01-10T06:16:43;32.88;;;29.67;;
54641;SDS011;40536;53.194;5.728;2024-01-10T06:19:10;32.63;;;29.25;;
54641;SDS011;40536;53.194;5.728;2024-01-10T06:21:36;29.45;;;25.73;;
54641;SDS011;40536;53.194;5.728;2024-01-10T06:24:03;32.05;;;28.65;;
54641;SDS011;40536;53.194;5.728;2024-01-10T06:26:29;36.40;;;32.88;;
54641;SDS011;40536;53.194;5.728;2024-01-10T06:28:54;33.40;;;29.65;;
54641;SDS011;40536;53.194;5.728;2024-01-10T06:31:22;36.35;;;32.55;;
54641;SDS011;40536;53.194;5.728;2024-01-10T06:33:48;33.05;;;29.52;;
54641;SDS011;40536;53.194;5.728;2024-01-10T06:36:14;34.13;;;30.67;;
54641;SDS011;40536;53.194;5.728;2024-01-10T06:38:40;36.33;;;32.58;;
54641;SDS011;40536;53.194;5.728;2024-01-10T06:41:09;34.58;;;30.73;;
54641;SDS011;40536;53.194;5.728;2024-01-10T06:43:38;32.90;;;29.45;;
54641;SDS011;40536;53.194;5.728;2024-01-10T06:46:04;33.78;;;30.20;;
54641;SDS011;40536;53.194;5.728;2024-01-10T06:48:29;32.60;;;29.27;;
54641;SDS011;40536;53.194;5.728;2024-01-10T06:50:56;34.70;;;31.10;;
54641;SDS011;40536;53.194;5.728;2024-01-10T06:53:22;32.08;;;28.83;;
54641;SDS011;40536;53.194;5.728;2024-01-10T06:55:48;36.42;;;32.72;;
54641;SDS011;40536;53.194;5.728;2024-01-10T06:58:14;35.78;;;32.25;;
54641;SDS011;40536;53.194;5.728;2024-01-10T07:00:39;34.58;;;31.00;;
54641;SDS011;40536;53.194;5.728;2024-01-10T07:03:05;36.58;;;32.83;;
54641;SDS011;40536;53.194;5.728;2024-01-10T07:05:30;32.65;;;29.23;;
54641;SDS011;40536;53.194;5.728;2024-01-10T07:07:59;32.40;;;28.90;;
54641;SDS011;40536;53.194;5.728;2024-01-10T07:10:28;37.80;;;34.22;;
54641;SDS011;40536;53.194;5.728;2024-01-10T07:12:57;35.67;;;32.35;;
54641;SDS011;40536;53.194;5.728;2024-01-10T07:15:23;37.33;;;33.30;;
54641;SDS011;40536;53.194;5.728;2024-01-10T07:17:48;36.05;;;32.17;;
54641;SDS011;40536;53.194;5.728;2024-01-10T07:20:14;37.25;;;33.25;;
54641;SDS011;40536;53.194;5.728;2024-01-10T07:22:40;36.63;;;31.63;;
54641;SDS011;40536;53.194;5.728;2024-01-10T07:25:11;42.15;;;38.17;;
54641;SDS011;40536;53.194;5.728;2024-01-10T07:27:41;36.53;;;32.70;;
54641;SDS011;40536;53.194;5.728;2024-01-10T07:30:10;43.03;;;39.08;;
54641;SDS011;40536;53.194;5.728;2024-01-10T07:32:40;33.85;;;30.25;;
54641;SDS011;40536;53.194;5.728;2024-01-10T07:35:10;35.50;;;31.70;;
54641;SDS011;40536;53.194;5.728;2024-01-10T07:37:36;33.97;;;30.48;;
54641;SDS011;40536;53.194;5.728;2024-01-10T07:40:06;34.25;;;30.95;;
54641;SDS011;40536;53.194;5.728;2024-01-10T07:42:38;63.03;;;58.28;;
54641;SDS011;40536;53.194;5.728;2024-01-10T07:45:05;32.88;;;29.50;;
54641;SDS011;40536;53.194;5.728;2024-01-10T07:47:31;38.30;;;34.60;;
54641;SDS011;40536;53.194;5.728;2024-01-10T07:49:59;42.20;;;38.50;;
54641;SDS011;40536;53.194;5.728;2024-01-10T07:52:25;42.58;;;38.65;;
54641;SDS011;40536;53.194;5.728;2024-01-10T07:54:50;33.83;;;29.60;;
54641;SDS011;40536;53.194;5.728;2024-01-10T07:57:16;29.95;;;26.83;;
54641;SDS011;40536;53.194;5.728;2024-01-10T07:59:43;40.75;;;36.75;;
54641;SDS011;40536;53.194;5.728;2024-01-10T08:02:12;31.15;;;27.85;;
54641;SDS011;40536;53.194;5.728;2024-01-10T08:04:38;35.70;;;31.98;;
54641;SDS011;40536;53.194;5.728;2024-01-10T08:07:03;30.95;;;27.98;;
54641;SDS011;40536;53.194;5.728;2024-01-10T08:09:29;28.90;;;25.67;;
54641;SDS011;40536;53.194;5.728;2024-01-10T08:11:55;27.77;;;23.25;;
54641;SDS011;40536;53.194;5.728;2024-01-10T08:14:20;30.55;;;27.38;;
54641;SDS011;40536;53.194;5.728;2024-01-10T08:16:46;33.25;;;27.13;;
54641;SDS011;40536;53.194;5.728;2024-01-10T08:19:12;30.02;;;23.65;;
54641;SDS011;40536;53.194;5.728;2024-01-10T08:21:38;28.42;;;25.38;;
54641;SDS011;40536;53.194;5.728;2024-01-10T08:24:04;30.52;;;27.00;;
54641;SDS011;40536;53.194;5.728;2024-01-10T08:26:31;30.80;;;27.65;;
54641;SDS011;40536;53.194;5.728;2024-01-10T08:28:56;29.83;;;24.02;;
54641;SDS011;40536;53.194;5.728;2024-01-10T08:31:23;25.85;;;20.17;;
54641;SDS011;40536;53.194;5.728;2024-01-10T08:33:50;30.73;;;24.83;;
54641;SDS011;40536;53.194;5.728;2024-01-10T08:36:15;26.25;;;20.10;;
54641;SDS011;40536;53.194;5.728;2024-01-10T08:38:41;24.42;;;20.10;;
54641;SDS011;40536;53.194;5.728;2024-01-10T08:41:07;24.95;;;19.77;;
54641;SDS011;40536;53.194;5.728;2024-01-10T08:43:34;25.88;;;18.95;;
54641;SDS011;40536;53.194;5.728;2024-01-10T08:45:59;24.98;;;19.95;;
54641;SDS011;40536;53.194;5.728;2024-01-10T08:48:25;23.17;;;18.75;;
54641;SDS011;40536;53.194;5.728;2024-01-10T08:50:51;24.65;;;19.00;;
54641;SDS011;40536;53.194;5.728;2024-01-10T08:53:19;21.88;;;18.27;;
54641;SDS011;40536;53.194;5.728;2024-01-10T08:55:44;23.05;;;18.60;;
54641;SDS011;40536;53.194;5.728;2024-01-10T08:58:12;20.90;;;17.45;;
54641;SDS011;40536;53.194;5.728;2024-01-10T09:00:37;23.08;;;17.80;;
54641;SDS011;40536;53.194;5.728;2024-01-10T09:03:03;24.50;;;18.00;;
54641;SDS011;40536;53.194;5.728;2024-01-10T09:05:29;23.92;;;19.00;;
54641;SDS011;40536;53.194;5.728;2024-01-10T09:07:55;23.70;;;16.63;;
54641;SDS011;40536;53.194;5.728;2024-01-10T09:10:21;22.27;;;16.38;;
54641;SDS011;40536;53.194;5.728;2024-01-10T09:12:47;19.15;;;16.33;;
54641;SDS011;40536;53.194;5.728;2024-01-10T09:15:13;19.63;;;16.17;;
54641;SDS011;40536;53.194;5.728;2024-01-10T09:17:43;22.70;;;16.98;;
54641;SDS011;40536;53.194;5.728;2024-01-10T09:20:09;19.48;;;16.08;;
54641;SDS011;40536;53.194;5.728;2024-01-10T09:22:36;19.08;;;15.27;;
54641;SDS011;40536;53.194;5.728;2024-01-10T09:25:03;20.65;;;16.77;;
54641;SDS011;40536;53.194;5.728;2024-01-10T09:27:32;18.67;;;14.23;;
54641;SDS011;40536;53.194;5.728;2024-01-10T09:29:59;21.73;;;15.98;;
54641;SDS011;40536;53.194;5.728;2024-01-10T09:32:27;22.00;;;15.55;;
54641;SDS011;40536;53.194;5.728;2024-01-10T09:34:58;19.33;;;14.70;;
54641;SDS011;40536;53.194;5.728;2024-01-10T09:37:23;21.02;;;14.20;;
54641;SDS011;40536;53.194;5.728;2024-01-10T09:39:49;18.05;;;14.98;;
54641;SDS011;40536;53.194;5.728;2024-01-10T09:42:14;18.98;;;13.30;;
54641;SDS011;40536;53.194;5.728;2024-01-10T09:44:41;19.35;;;14.63;;
54641;SDS011;40536;53.194;5.728;2024-01-10T09:47:07;18.67;;;13.70;;
54641;SDS011;40536;53.194;5.728;2024-01-10T09:49:33;21.35;;;14.50;;
54641;SDS011;40536;53.194;5.728;2024-01-10T09:51:59;19.88;;;15.02;;
54641;SDS011;40536;53.194;5.728;2024-01-10T09:54:29;19.88;;;13.75;;
54641;SDS011;40536;53.194;5.728;2024-01-10T09:56:59;17.88;;;13.63;;
54641;SDS011;40536;53.194;5.728;2024-01-10T09:59:24;19.52;;;13.80;;
54641;SDS011;40536;53.194;5.728;2024-01-10T10:01:53;20.30;;;13.73;;
54641;SDS011;40536;53.194;5.728;2024-01-10T10:04:21;19.42;;;12.70;;
54641;SDS011;40536;53.194;5.728;2024-01-10T10:06:57;17.30;;;13.05;;
54641;SDS011;40536;53.194;5.728;2024-01-10T10:09:24;20.40;;;13.50;;
54641;SDS011;40536;53.194;5.728;2024-01-10T10:11:54;20.35;;;13.65;;
54641;SDS011;40536;53.194;5.728;2024-01-10T10:14:20;22.00;;;13.57;;
54641;SDS011;40536;53.194;5.728;2024-01-10T10:16:46;18.98;;;13.35;;
54641;SDS011;40536;53.194;5.728;2024-01-10T10:19:13;20.42;;;12.82;;
54641;SDS011;40536;53.194;5.728;2024-01-10T10:21:48;17.65;;;12.88;;
54641;SDS011;40536;53.194;5.728;2024-01-10T10:24:13;20.80;;;13.02;;
54641;SDS011;40536;53.194;5.728;2024-01-10T10:26:41;20.50;;;14.20;;
54641;SDS011;40536;53.194;5.728;2024-01-10T10:29:07;18.52;;;13.85;;
54641;SDS011;40536;53.194;5.728;2024-01-10T10:31:34;18.38;;;12.25;;
54641;SDS011;40536;53.194;5.728;2024-01-10T10:34:02;16.27;;;12.60;;
54641;SDS011;40536;53.194;5.728;2024-01-10T10:36:31;16.48;;;12.50;;
54641;SDS011;40536;53.194;5.728;2024-01-10T10:38:58;18.50;;;13.20;;
54641;SDS011;40536;53.194;5.728;2024-01-10T10:41:27;17.50;;;12.63;;
54641;SDS011;40536;53.194;5.728;2024-01-10T10:43:56;17.05;;;12.38;;
54641;SDS011;40536;53.194;5.728;2024-01-10T10:46:22;18.88;;;12.90;;
54641;SDS011;40536;53.194;5.728;2024-01-10T10:48:52;18.08;;;11.23;;
54641;SDS011;40536;53.194;5.728;2024-01-10T10:51:22;19.70;;;11.25;;
54641;SDS011;40536;53.194;5.728;2024-01-10T10:53:58;17.42;;;10.98;;
54641;SDS011;40536;53.194;5.728;2024-01-10T10:56:25;15.20;;;11.55;;
54641;SDS011;40536;53.194;5.728;2024-01-10T10:58:55;14.32;;;10.70;;
54641;SDS011;40536;53.194;5.728;2024-01-10T11:01:22;18.67;;;10.68;;
54641;SDS011;40536;53.194;5.728;2024-01-10T11:03:49;15.35;;;11.15;;
54641;SDS011;40536;53.194;5.728;2024-01-10T11:06:14;19.00;;;12.05;;
54641;SDS011;40536;53.194;5.728;2024-01-10T11:08:44;17.02;;;11.75;;
54641;SDS011;40536;53.194;5.728;2024-01-10T11:22:36;15.85;;;11.60;;
54641;SDS011;40536;53.194;5.728;2024-01-10T11:24:47;14.68;;;11.13;;
54641;SDS011;40536;53.194;5.728;2024-01-10T11:27:14;14.32;;;11.13;;
54641;SDS011;40536;53.194;5.728;2024-01-10T11:29:41;20.80;;;11.07;;
54641;SDS011;40536;53.194;5.728;2024-01-10T11:32:12;18.48;;;13.07;;
54641;SDS011;40536;53.194;5.728;2024-01-10T11:34:56;16.98;;;10.93;;
54641;SDS011;40536;53.194;5.728;2024-01-10T11:40:12;13.45;;;10.50;;
54641;SDS011;40536;53.194;5.728;2024-01-10T11:42:41;15.27;;;10.95;;
54641;SDS011;40536;53.194;5.728;2024-01-10T11:45:07;18.52;;;10.32;;
54641;SDS011;40536;53.194;5.728;2024-01-10T11:47:33;16.63;;;11.85;;
54641;SDS011;40536;53.194;5.728;2024-01-10T11:50:01;15.02;;;11.32;;
54641;SDS011;40536;53.194;5.728;2024-01-10T11:52:32;15.38;;;10.90;;
54641;SDS011;40536;53.194;5.728;2024-01-10T11:54:59;14.45;;;10.48;;
54641;SDS011;40536;53.194;5.728;2024-01-10T11:57:25;18.90;;;11.75;;
54641;SDS011;40536;53.194;5.728;2024-01-10T11:59:53;19.80;;;10.90;;
54641;SDS011;40536;53.194;5.728;2024-01-10T12:02:20;15.80;;;10.20;;
54641;SDS011;40536;53.194;5.728;2024-01-10T12:04:47;18.17;;;10.98;;
54641;SDS011;40536;53.194;5.728;2024-01-10T12:07:13;18.25;;;10.27;;
54641;SDS011;40536;53.194;5.728;2024-01-10T12:09:39;15.40;;;9.68;;
54641;SDS011;40536;53.194;5.728;2024-01-10T12:12:07;16.42;;;9.40;;
54641;SDS011;40536;53.194;5.728;2024-01-10T12:14:33;15.63;;;10.27;;
54641;SDS011;40536;53.194;5.728;2024-01-10T12:16:59;17.48;;;10.13;;
54641;SDS011;40536;53.194;5.728;2024-01-10T12:19:25;18.40;;;11.05;;
54641;SDS011;40536;53.194;5.728;2024-01-10T12:21:52;17.73;;;10.80;;
54641;SDS011;40536;53.194;5.728;2024-01-10T12:24:18;17.83;;;10.43;;
54641;SDS011;40536;53.194;5.728;2024-01-10T12:26:48;14.82;;;9.85;;
54641;SDS011;40536;53.194;5.728;2024-01-10T12:29:17;18.23;;;10.23;;
54641;SDS011;40536;53.194;5.728;2024-01-10T12:31:47;14.38;;;9.95;;
54641;SDS011;40536;53.194;5.728;2024-01-10T12:34:13;14.02;;;10.15;;
54641;SDS011;40536;53.194;5.728;2024-01-10T12:36:40;17.55;;;9.88;;
54641;SDS011;40536;53.194;5.728;2024-01-10T12:39:09;15.95;;;9.63;;
54641;SDS011;40536;53.194;5.728;2024-01-10T12:41:36;16.17;;;9.30;;
54641;SDS011;40536;53.194;5.728;2024-01-10T12:44:02;14.20;;;8.80;;
54641;SDS011;40536;53.194;5.728;2024-01-10T12:46:30;14.27;;;9.52;;
54641;SDS011;40536;53.194;5.728;2024-01-10T12:49:00;15.60;;;10.40;;
54641;SDS011;40536;53.194;5.728;2024-01-10T12:51:30;16.08;;;9.70;;
54641;SDS011;40536;53.194;5.728;2024-01-10T12:53:59;14.35;;;9.23;;
54641;SDS011;40536;53.194;5.728;2024-01-10T12:56:26;16.48;;;9.60;;
54641;SDS011;40536;53.194;5.728;2024-01-10T12:58:53;14.82;;;9.65;;
54641;SDS011;40536;53.194;5.728;2024-01-10T13:01:22;13.60;;;9.52;;
54641;SDS011;40536;53.194;5.728;2024-01-10T13:03:49;16.25;;;10.02;;
54641;SDS011;40536;53.194;5.728;2024-01-10T13:06:15;16.17;;;9.73;;
54641;SDS011;40536;53.194;5.728;2024-01-10T13:08:47;12.70;;;8.90;;
54641;SDS011;40536;53.194;5.728;2024-01-10T13:11:13;16.70;;;9.90;;
54641;SDS011;40536;53.194;5.728;2024-01-10T13:13:40;13.27;;;9.45;;
54641;SDS011;40536;53.194;5.728;2024-01-10T13:16:08;11.88;;;8.90;;
54641;SDS011;40536;53.194;5.728;2024-01-10T13:18:36;13.23;;;9.30;;
54641;SDS011;40536;53.194;5.728;2024-01-10T13:21:02;15.35;;;9.52;;
54641;SDS011;40536;53.194;5.728;2024-01-10T13:23:28;14.50;;;9.75;;
54641;SDS011;40536;53.194;5.728;2024-01-10T13:25:54;12.93;;;8.88;;
54641;SDS011;40536;53.194;5.728;2024-01-10T13:28:22;17.45;;;8.88;;
54641;SDS011;40536;53.194;5.728;2024-01-10T13:30:48;16.05;;;9.80;;
54641;SDS011;40536;53.194;5.728;2024-01-10T13:33:15;13.77;;;9.52;;
54641;SDS011;40536;53.194;5.728;2024-01-10T13:35:47;15.82;;;9.75;;
54641;SDS011;40536;53.194;5.728;2024-01-10T13:38:12;15.07;;;10.13;;
54641;SDS011;40536;53.194;5.728;2024-01-10T13:40:38;14.10;;;9.38;;
54641;SDS011;40536;53.194;5.728;2024-01-10T13:43:04;13.75;;;9.98;;
54641;SDS011;40536;53.194;5.728;2024-01-10T13:45:29;15.40;;;9.73;;
54641;SDS011;40536;53.194;5.728;2024-01-10T13:47:55;15.23;;;10.23;;
54641;SDS011;40536;53.194;5.728;2024-01-10T13:50:21;14.40;;;9.90;;
54641;SDS011;40536;53.194;5.728;2024-01-10T13:52:47;14.23;;;10.27;;
54641;SDS011;40536;53.194;5.728;2024-01-10T13:55:12;16.60;;;11.10;;
54641;SDS011;40536;53.194;5.728;2024-01-10T13:57:38;14.05;;;9.55;;
54641;SDS011;40536;53.194;5.728;2024-01-10T14:00:05;15.02;;;9.50;;
54641;SDS011;40536;53.194;5.728;2024-01-10T14:02:35;14.95;;;10.43;;
54641;SDS011;40536;53.194;5.728;2024-01-10T14:05:01;18.45;;;10.20;;
54641;SDS011;40536;53.194;5.728;2024-01-10T14:07:31;16.00;;;10.68;;
54641;SDS011;40536;53.194;5.728;2024-01-10T14:09:58;14.63;;;9.80;;
54641;SDS011;40536;53.194;5.728;2024-01-10T14:12:24;14.98;;;8.95;;
54641;SDS011;40536;53.194;5.728;2024-01-10T14:14:50;13.15;;;8.48;;
54641;SDS011;40536;53.194;5.728;2024-01-10T14:17:15;13.48;;;9.10;;
54641;SDS011;40536;53.194;5.728;2024-01-10T14:19:41;15.43;;;9.32;;
54641;SDS011;40536;53.194;5.728;2024-01-10T14:22:08;14.60;;;9.40;;
54641;SDS011;40536;53.194;5.728;2024-01-10T14:24:34;14.25;;;9.00;;
54641;SDS011;40536;53.194;5.728;2024-01-10T14:27:00;17.33;;;9.10;;
54641;SDS011;40536;53.194;5.728;2024-01-10T14:29:26;14.18;;;8.57;;
54641;SDS011;40536;53.194;5.728;2024-01-10T14:31:54;16.25;;;9.75;;
54641;SDS011;40536;53.194;5.728;2024-01-10T14:34:21;15.20;;;8.98;;